createdAt,value
2022-08-11T00:02:28.971Z,3.65
2022-08-11T00:05:02.387Z,3.40
2022-08-11T00:07:31.214Z,3.35
2022-08-11T00:10:01.466Z,3.45
2022-08-11T00:12:29.779Z,3.13
2022-08-11T00:14:59.942Z,3.50
2022-08-11T00:17:31.908Z,3.65
2022-08-11T00:20:12.617Z,4.10
2022-08-11T00:22:47.563Z,3.35
2022-08-11T00:25:19.133Z,3.30
2022-08-11T00:27:48.689Z,3.40
2022-08-11T00:30:17.688Z,3.95
2022-08-11T00:32:54.286Z,3.95
2022-08-11T00:35:54.444Z,4.20
2022-08-11T00:38:17.375Z,4.22
2022-08-11T00:41:06.043Z,4.45
2022-08-11T00:43:49.094Z,4.07
2022-08-11T00:46:24.053Z,4.55
2022-08-11T00:49:05.241Z,4.28
2022-08-11T00:52:02.228Z,3.33
2022-08-11T00:55:31.013Z,4.43
2022-08-11T00:58:41.417Z,3.35
2022-08-11T01:01:22.576Z,4.55
2022-08-11T01:04:19.419Z,3.45
2022-08-11T01:07:17.090Z,5.18
2022-08-11T01:10:27.242Z,4.20
2022-08-11T01:13:10.934Z,11.77
2022-08-11T01:16:15.738Z,5.65
2022-08-11T01:19:14.186Z,8.60
2022-08-11T01:22:15.551Z,6.30
2022-08-11T01:25:16.962Z,7.20
2022-08-11T01:28:38.814Z,7.43
2022-08-11T01:31:43.597Z,7.07
2022-08-11T01:34:48.546Z,5.65
2022-08-11T01:38:14.387Z,7.82
2022-08-11T01:41:14.483Z,5.95
2022-08-11T01:44:34.394Z,9.75
2022-08-11T01:47:36.613Z,5.50
2022-08-11T01:50:17.798Z,5.53
2022-08-11T01:53:10.074Z,6.60
2022-08-11T01:55:47.885Z,7.18
2022-08-11T01:58:34.304Z,8.02
2022-08-11T02:01:24.724Z,8.15
2022-08-11T02:03:59.969Z,8.98
2022-08-11T02:06:53.615Z,10.23
2022-08-11T02:09:42.099Z,7.95
2022-08-11T02:12:26.662Z,7.38
2022-08-11T02:15:04.629Z,9.43
2022-08-11T02:17:48.761Z,9.57
2022-08-11T02:20:41.401Z,6.68
2022-08-11T02:24:04.489Z,8.65
2022-08-11T02:26:43.084Z,12.13
2022-08-11T02:29:19.943Z,7.75
2022-08-11T02:32:25.826Z,7.63
2022-08-11T02:35:10.968Z,14.55
2022-08-11T02:37:51.525Z,5.00
2022-08-11T02:40:28.469Z,6.55
2022-08-11T02:43:10.256Z,6.07
2022-08-11T02:45:55.545Z,7.55
2022-08-11T02:49:05.044Z,8.15
2022-08-11T02:51:40.597Z,6.32
2022-08-11T02:54:16.454Z,6.80
2022-08-11T02:56:58.061Z,6.32
2022-08-11T02:59:51.414Z,8.95
2022-08-11T03:02:41.291Z,6.20
2022-08-11T03:05:23.461Z,7.45
2022-08-11T03:08:06.886Z,8.85
2022-08-11T03:10:43.608Z,9.90
2022-08-11T03:13:35.236Z,5.65
2022-08-11T03:16:46.634Z,7.05
2022-08-11T03:19:23.231Z,8.35
2022-08-11T03:22:03.326Z,6.68
2022-08-11T03:24:43.560Z,7.00
2022-08-11T03:27:22.899Z,10.15
2022-08-11T03:30:04.577Z,7.38
2022-08-11T03:32:39.083Z,6.45
2022-08-11T03:35:09.571Z,7.00
2022-08-11T03:37:51.946Z,8.38
2022-08-11T03:40:59.751Z,8.82
2022-08-11T03:43:58.100Z,6.72
2022-08-11T03:46:39.662Z,11.35
2022-08-11T03:49:24.502Z,8.88
2022-08-11T03:52:01.228Z,7.05
2022-08-11T03:54:39.429Z,8.77
2022-08-11T03:57:51.511Z,7.43
2022-08-11T04:00:46.756Z,5.85
2022-08-11T04:03:58.970Z,6.20
2022-08-11T04:07:05.052Z,5.65
2022-08-11T04:10:24.790Z,8.10
2022-08-11T04:13:24.645Z,6.93
2022-08-11T04:16:11.704Z,6.60
2022-08-11T04:19:29.989Z,5.22
2022-08-11T04:22:24.322Z,6.55
2022-08-11T04:25:08.571Z,6.55
2022-08-11T04:28:08.672Z,8.15
2022-08-11T04:31:10.121Z,6.10
2022-08-11T04:34:10.679Z,8.43
2022-08-11T04:37:28.998Z,6.80
2022-08-11T04:41:14.754Z,5.65
2022-08-11T04:44:28.559Z,6.80
2022-08-11T04:48:03.269Z,6.18
2022-08-11T04:51:16.351Z,6.07
2022-08-11T04:54:15.528Z,7.88
2022-08-11T04:57:05.914Z,7.70
2022-08-11T05:00:20.098Z,5.32
2022-08-11T05:03:39.507Z,7.05
2022-08-11T05:06:50.846Z,5.80
2022-08-11T05:09:29.972Z,8.20
2022-08-11T05:12:21.312Z,6.18
2022-08-11T05:15:09.232Z,5.82
2022-08-11T05:17:59.379Z,6.63
2022-08-11T05:21:04.467Z,6.45
2022-08-11T05:23:52.784Z,6.35
2022-08-11T05:26:47.178Z,7.78
2022-08-11T05:29:58.368Z,6.97
2022-08-11T05:32:48.784Z,6.60
2022-08-11T05:36:02.316Z,5.78
2022-08-11T05:38:37.017Z,7.55
2022-08-11T05:41:23.115Z,6.50
2022-08-11T05:44:21.031Z,6.65
2022-08-11T05:47:09.411Z,6.78
2022-08-11T05:49:57.776Z,7.10
2022-08-11T05:52:47.027Z,8.73
2022-08-11T05:55:35.275Z,6.32
2022-08-11T05:58:05.345Z,6.20
2022-08-11T06:00:42.316Z,8.52
2022-08-11T06:03:12.338Z,7.47
2022-08-11T06:05:43.928Z,7.85
2022-08-11T06:08:14.067Z,11.05
2022-08-11T06:10:45.105Z,5.97
2022-08-11T06:13:17.764Z,11.70
2022-08-11T06:15:47.394Z,9.32
2022-08-11T06:18:17.743Z,7.15
2022-08-11T06:20:48.395Z,6.05
2022-08-11T06:23:19.586Z,8.63
2022-08-11T06:25:48.225Z,6.30
2022-08-11T06:28:21.327Z,11.27
2022-08-11T06:30:50.677Z,6.03
2022-08-11T06:33:31.457Z,8.15
2022-08-11T06:36:07.892Z,7.45
2022-08-11T06:39:01.965Z,7.53
2022-08-11T06:41:39.345Z,6.97
2022-08-11T06:44:16.827Z,7.05
2022-08-11T06:46:47.709Z,8.13
2022-08-11T06:49:36.443Z,14.38
2022-08-11T06:52:06.789Z,7.55
2022-08-11T06:54:45.045Z,8.00
2022-08-11T06:57:32.451Z,8.35
2022-08-11T07:00:29.043Z,7.25
2022-08-11T07:03:04.369Z,6.93
2022-08-11T07:05:43.951Z,9.00
2022-08-11T07:08:55.124Z,9.18
2022-08-11T07:12:07.100Z,9.60
2022-08-11T07:14:59.952Z,6.78
2022-08-11T07:17:31.391Z,8.40
2022-08-11T07:20:20.206Z,8.60
2022-08-11T07:23:12.318Z,7.00
2022-08-11T07:26:00.106Z,7.55
2022-08-11T07:28:48.029Z,7.20
2022-08-11T07:31:21.512Z,7.47
2022-08-11T07:34:07.378Z,7.28
2022-08-11T07:36:41.338Z,7.65
2022-08-11T07:39:18.221Z,9.05
2022-08-11T07:41:48.232Z,7.80
2022-08-11T07:44:17.523Z,7.65
2022-08-11T07:47:06.113Z,8.10
2022-08-11T07:49:55.406Z,11.40
2022-08-11T07:52:30.804Z,7.80
2022-08-11T07:55:02.625Z,10.10
2022-08-11T07:58:15.733Z,8.65
2022-08-11T08:00:59.251Z,8.52
2022-08-11T08:03:54.508Z,9.13
2022-08-11T08:06:41.664Z,9.10
2022-08-11T08:09:29.701Z,8.63
2022-08-11T08:12:19.687Z,11.13
2022-08-11T08:15:06.815Z,17.33
2022-08-11T08:18:09.651Z,8.70
2022-08-11T08:20:47.502Z,7.65
2022-08-11T08:23:17.414Z,8.57
2022-08-11T08:25:46.747Z,8.13
2022-08-11T08:28:18.749Z,7.88
2022-08-11T08:30:51.169Z,5.75
2022-08-11T08:33:22.655Z,6.32
2022-08-11T08:36:11.654Z,6.72
2022-08-11T08:38:42.041Z,7.47
2022-08-11T08:41:13.347Z,6.57
2022-08-11T08:43:50.222Z,8.65
2022-08-11T08:46:23.445Z,11.13
2022-08-11T08:48:53.335Z,10.48
2022-08-11T08:52:02.501Z,6.75
2022-08-11T08:54:31.823Z,8.10
2022-08-11T08:57:03.066Z,7.82
2022-08-11T08:59:47.627Z,8.75
2022-08-11T09:02:33.582Z,8.05
2022-08-11T09:05:03.896Z,8.48
2022-08-11T09:07:39.825Z,9.10
2022-08-11T09:10:10.866Z,8.15
2022-08-11T09:12:42.361Z,11.82
2022-08-11T09:15:15.145Z,7.93
2022-08-11T09:17:49.911Z,12.18
2022-08-11T09:20:21.282Z,60.13
2022-08-11T09:26:16.518Z,21.38
2022-08-11T09:28:45.427Z,18.65
2022-08-11T09:31:17.031Z,14.93
2022-08-11T09:33:46.124Z,9.85
2022-08-11T09:36:32.557Z,10.60
2022-08-11T09:39:19.357Z,11.98
2022-08-11T09:42:01.250Z,9.43
2022-08-11T09:44:49.125Z,7.78
2022-08-11T09:47:24.809Z,10.98
2022-08-11T09:50:00.226Z,11.68
2022-08-11T09:52:30.736Z,11.98
2022-08-11T09:54:59.309Z,15.45
2022-08-11T09:57:45.165Z,9.02
2022-08-11T10:00:16.034Z,33.87
2022-08-11T10:02:47.865Z,13.93
2022-08-11T10:05:36.280Z,7.68
2022-08-11T10:08:05.877Z,10.35
2022-08-11T10:10:37.017Z,13.88
2022-08-11T10:14:03.745Z,10.23
2022-08-11T10:15:59.689Z,10.57
2022-08-11T10:18:52.626Z,11.52
2022-08-11T10:21:29.253Z,10.95
2022-08-11T10:24:17.499Z,11.07
2022-08-11T10:27:00.303Z,10.90
2022-08-11T10:29:51.055Z,9.57
2022-08-11T10:32:58.698Z,11.82
2022-08-11T10:35:30.707Z,10.00
2022-08-11T10:38:06.333Z,9.70
2022-08-11T10:40:40.041Z,14.73
2022-08-11T10:43:14.013Z,11.07
2022-08-11T10:46:04.312Z,9.00
2022-08-11T10:48:38.210Z,9.55
2022-08-11T10:51:13.985Z,10.13
2022-08-11T10:54:02.043Z,10.82
2022-08-11T10:56:50.006Z,10.23
2022-08-11T10:59:18.675Z,10.55
2022-08-11T11:01:47.768Z,7.07
2022-08-11T11:04:17.983Z,9.55
2022-08-11T11:06:58.401Z,8.77
2022-08-11T11:09:32.630Z,6.70
2022-08-11T11:12:22.306Z,12.40
2022-08-11T11:15:17.530Z,11.82
2022-08-11T11:17:58.028Z,8.35
2022-08-11T11:20:37.832Z,11.52
2022-08-11T11:23:17.988Z,7.10
2022-08-11T11:26:14.989Z,9.23
2022-08-11T11:28:56.979Z,11.18
2022-08-11T11:31:33.684Z,6.72
2022-08-11T11:34:16.715Z,6.65
2022-08-11T11:36:52.417Z,9.52
2022-08-11T11:39:24.527Z,10.93
2022-08-11T11:41:55.587Z,10.52
2022-08-11T11:44:25.197Z,7.47
2022-08-11T11:46:56.670Z,8.00
2022-08-11T11:49:28.410Z,15.10
2022-08-11T11:51:58.415Z,9.13
2022-08-11T11:54:30.062Z,8.68
2022-08-11T11:57:20.500Z,6.35
2022-08-11T12:00:07.599Z,12.70
2022-08-11T12:02:37.400Z,7.95
2022-08-11T12:05:07.247Z,8.43
2022-08-11T12:08:04.941Z,9.05
2022-08-11T12:10:45.747Z,11.50
2022-08-11T12:13:32.873Z,9.73
2022-08-11T12:16:31.665Z,7.85
2022-08-11T12:18:54.996Z,8.43
2022-08-11T12:21:26.179Z,8.98
2022-08-11T12:24:14.317Z,11.27
2022-08-11T12:27:15.353Z,7.57
2022-08-11T12:29:51.390Z,9.10
2022-08-11T12:32:24.552Z,9.93
2022-08-11T12:34:53.075Z,6.25
2022-08-11T12:37:30.335Z,8.88
2022-08-11T12:40:43.732Z,7.85
2022-08-11T12:43:37.248Z,9.73
2022-08-11T12:46:10.358Z,6.60
2022-08-11T12:49:03.400Z,10.55
2022-08-11T12:52:03.040Z,8.57
2022-08-11T12:54:51.747Z,7.45
2022-08-11T12:57:44.301Z,9.48
2022-08-11T13:00:33.534Z,7.95
2022-08-11T13:03:20.792Z,10.48
2022-08-11T13:05:49.819Z,9.32
2022-08-11T13:08:18.954Z,6.25
2022-08-11T13:11:05.787Z,11.32
2022-08-11T13:13:55.128Z,7.53
2022-08-11T13:16:24.974Z,12.70
2022-08-11T13:18:53.888Z,9.73
2022-08-11T13:21:23.656Z,12.85
2022-08-11T13:23:59.456Z,7.93
2022-08-11T13:26:43.178Z,12.30
2022-08-11T13:29:21.905Z,9.57
2022-08-11T13:31:52.853Z,7.35
2022-08-11T13:34:22.525Z,7.75
2022-08-11T13:36:52.941Z,7.15
2022-08-11T13:39:23.968Z,9.60
2022-08-11T13:41:53.685Z,9.65
2022-08-11T13:44:25.872Z,15.02
2022-08-11T13:46:59.447Z,10.15
2022-08-11T13:49:31.699Z,6.93
2022-08-11T13:52:01.251Z,10.90
2022-08-11T13:54:32.174Z,12.30
2022-08-11T13:57:08.276Z,9.50
2022-08-11T13:59:52.412Z,9.70
2022-08-11T14:02:29.493Z,8.98
2022-08-11T14:05:00.300Z,13.98
2022-08-11T14:07:36.097Z,11.93
2022-08-11T14:10:08.230Z,10.68
2022-08-11T14:12:55.716Z,11.90
2022-08-11T14:15:28.917Z,9.82
2022-08-11T14:18:03.477Z,10.65
2022-08-11T14:20:53.971Z,6.50
2022-08-11T14:23:27.509Z,10.30
2022-08-11T14:26:14.691Z,7.22
2022-08-11T14:28:45.143Z,10.48
2022-08-11T14:31:15.985Z,10.48
2022-08-11T14:34:00.446Z,11.02
2022-08-11T14:36:36.389Z,11.43
2022-08-11T14:39:09.147Z,10.15
2022-08-11T14:42:10.036Z,8.38
2022-08-11T14:45:00.385Z,11.35
2022-08-11T14:47:30.932Z,7.88
2022-08-11T14:50:10.974Z,7.85
2022-08-11T14:52:45.216Z,9.55
2022-08-11T14:55:32.398Z,9.82
2022-08-11T14:58:01.954Z,11.90
2022-08-11T15:00:31.191Z,9.80
2022-08-11T15:03:13.134Z,9.43
2022-08-11T15:05:57.261Z,13.18
2022-08-11T15:08:57.717Z,10.18
2022-08-11T15:11:54.000Z,23.60
2022-08-11T15:14:36.192Z,11.27
2022-08-11T15:17:13.027Z,8.93
2022-08-11T15:20:05.065Z,16.50
2022-08-11T15:22:52.201Z,9.18
2022-08-11T15:25:21.394Z,11.93
2022-08-11T15:28:09.984Z,10.23
2022-08-11T15:30:58.626Z,13.82
2022-08-11T15:33:47.580Z,9.68
2022-08-11T15:36:34.083Z,12.88
2022-08-11T15:39:19.631Z,10.23
2022-08-11T15:42:11.372Z,15.18
2022-08-11T15:45:04.271Z,11.82
2022-08-11T15:47:41.625Z,23.02
2022-08-11T15:50:15.292Z,12.18
2022-08-11T15:52:51.042Z,16.80
2022-08-11T15:55:21.232Z,10.57
2022-08-11T15:58:09.167Z,15.43
2022-08-11T16:00:58.696Z,9.70
2022-08-11T16:04:07.493Z,14.27
2022-08-11T16:06:46.346Z,9.20
2022-08-11T16:09:19.060Z,11.68
2022-08-11T16:11:50.937Z,18.73
2022-08-11T16:14:38.336Z,9.30
2022-08-11T16:17:08.143Z,10.95
2022-08-11T16:19:42.349Z,11.63
2022-08-11T16:22:13.042Z,10.65
2022-08-11T16:27:05.620Z,14.23
2022-08-11T16:27:39.898Z,14.20
2022-08-11T16:30:09.038Z,12.30
2022-08-11T16:32:40.668Z,14.75
2022-08-11T16:35:29.586Z,9.40
2022-08-11T16:38:16.473Z,16.48
2022-08-11T16:40:45.608Z,31.60
2022-08-11T16:43:35.326Z,23.77
2022-08-11T16:46:34.748Z,28.48
2022-08-11T16:49:05.460Z,18.35
2022-08-11T16:51:34.375Z,19.60
2022-08-11T16:54:05.133Z,21.92
2022-08-11T16:56:38.687Z,26.65
2022-08-11T16:59:15.173Z,21.95
2022-08-11T17:01:47.149Z,25.40
2022-08-11T17:04:43.338Z,28.88
2022-08-11T17:07:41.512Z,37.88
2022-08-11T17:10:52.424Z,34.42
2022-08-11T17:13:28.439Z,24.38
2022-08-11T17:16:08.793Z,28.73
2022-08-11T17:18:44.238Z,94.43
2022-08-11T17:21:27.080Z,29.92
2022-08-11T17:23:57.144Z,24.77
2022-08-11T17:26:50.859Z,32.08
2022-08-11T17:29:21.599Z,47.15
2022-08-11T17:32:24.760Z,39.55
2022-08-11T17:35:14.240Z,42.00
2022-08-11T17:37:44.562Z,35.75
2022-08-11T17:40:15.880Z,39.55
2022-08-11T17:43:03.909Z,24.08
2022-08-11T17:45:55.646Z,30.25
2022-08-11T17:48:28.684Z,21.40
2022-08-11T17:51:01.303Z,37.08
2022-08-11T17:54:18.019Z,25.10
2022-08-11T17:56:56.389Z,42.70
2022-08-11T17:59:45.346Z,32.28
2022-08-11T18:02:38.050Z,23.80
2022-08-11T18:05:13.272Z,22.77
2022-08-11T18:08:00.677Z,21.65
2022-08-11T18:10:49.421Z,31.00
2022-08-11T18:13:36.826Z,23.58
2022-08-11T18:16:22.643Z,21.95
2022-08-11T18:19:08.604Z,23.67
2022-08-11T18:22:08.241Z,23.92
2022-08-11T18:25:06.042Z,27.70
2022-08-11T18:27:55.050Z,20.70
2022-08-11T18:30:42.273Z,33.75
2022-08-11T18:33:56.875Z,25.08
2022-08-11T18:36:39.810Z,23.65
2022-08-11T18:39:30.797Z,23.30
2022-08-11T18:42:29.837Z,28.83
2022-08-11T18:45:19.069Z,20.42
2022-08-11T18:48:09.284Z,21.35
2022-08-11T18:51:30.758Z,22.67
2022-08-11T18:54:09.218Z,24.15
2022-08-11T18:56:56.246Z,23.25
2022-08-11T18:59:45.499Z,28.15
2022-08-11T19:02:33.812Z,25.17
2022-08-11T19:06:08.362Z,27.40
2022-08-11T19:08:48.058Z,24.73
2022-08-11T19:11:34.370Z,24.45
2022-08-11T19:14:31.435Z,25.10
2022-08-11T19:17:44.172Z,24.73
2022-08-11T19:20:30.360Z,25.15
2022-08-11T19:23:17.119Z,24.70
2022-08-11T19:26:03.825Z,27.83
2022-08-11T19:28:52.279Z,31.15
2022-08-11T19:31:44.951Z,29.67
2022-08-11T19:34:33.963Z,24.92
2022-08-11T19:37:24.421Z,30.85
2022-08-11T19:40:12.365Z,31.45
2022-08-11T19:43:00.171Z,31.98
2022-08-11T19:45:52.385Z,28.02
2022-08-11T19:48:40.649Z,46.35
2022-08-11T19:51:27.560Z,31.00
2022-08-11T19:54:13.951Z,31.20
2022-08-11T19:57:01.071Z,28.30
2022-08-11T19:59:47.351Z,33.65
2022-08-11T20:02:33.047Z,42.47
2022-08-11T20:05:20.404Z,27.23
2022-08-11T20:08:07.708Z,35.03
2022-08-11T20:10:55.658Z,30.30
2022-08-11T20:13:45.879Z,28.63
2022-08-11T20:16:34.355Z,42.13
2022-08-11T20:19:26.242Z,34.90
2022-08-11T20:22:32.940Z,28.95
2022-08-11T20:25:19.587Z,37.28
2022-08-11T20:28:07.381Z,39.17
2022-08-11T20:30:54.371Z,41.00
2022-08-11T20:33:41.885Z,29.05
2022-08-11T20:36:29.388Z,27.27
2022-08-11T20:39:17.366Z,49.13
2022-08-11T20:42:04.748Z,28.55
2022-08-11T20:44:52.056Z,33.80
2022-08-11T20:47:59.299Z,33.25
2022-08-11T20:50:46.254Z,28.48
2022-08-11T20:53:35.896Z,28.88
2022-08-11T20:56:28.271Z,37.38
2022-08-11T20:59:18.929Z,50.03
2022-08-11T21:02:09.761Z,32.42
2022-08-11T21:04:56.792Z,34.28
2022-08-11T21:07:55.546Z,36.03
2022-08-11T21:10:47.218Z,48.47
2022-08-11T21:13:40.429Z,37.20
2022-08-11T21:16:28.624Z,47.45
2022-08-11T21:19:56.383Z,39.20
2022-08-11T21:22:32.545Z,36.97
2022-08-11T21:25:19.343Z,47.53
2022-08-11T21:28:07.854Z,36.30
2022-08-11T21:30:55.769Z,44.30
2022-08-11T21:33:46.295Z,38.10
2022-08-11T21:36:33.824Z,41.60
2022-08-11T21:39:22.839Z,43.47
2022-08-11T21:42:12.814Z,43.88
2022-08-11T21:45:00.336Z,52.63
2022-08-11T21:47:48.487Z,60.78
2022-08-11T21:50:34.441Z,41.00
2022-08-11T21:53:20.697Z,40.15
2022-08-11T21:56:08.270Z,41.03
2022-08-11T21:58:55.228Z,40.17
2022-08-11T22:01:40.752Z,41.55
2022-08-11T22:04:28.432Z,44.17
2022-08-11T22:07:15.215Z,37.83
2022-08-11T22:10:01.150Z,34.60
2022-08-11T22:13:06.557Z,43.00
2022-08-11T22:15:52.086Z,54.53
2022-08-11T22:18:37.294Z,39.40
2022-08-11T22:22:01.471Z,43.83
2022-08-11T22:24:31.812Z,46.63
2022-08-11T22:27:17.459Z,41.60
2022-08-11T22:30:03.317Z,43.38
2022-08-11T22:32:48.972Z,42.05
2022-08-11T22:35:35.669Z,38.40
2022-08-11T22:38:23.327Z,43.58
2022-08-11T22:41:09.586Z,64.70
2022-08-11T22:43:55.017Z,45.42
2022-08-11T22:46:41.128Z,46.72
2022-08-11T22:49:29.382Z,55.45
2022-08-11T22:52:29.733Z,38.13
2022-08-11T22:55:17.788Z,46.80
2022-08-11T22:58:04.864Z,42.40
2022-08-11T23:00:51.240Z,50.65
2022-08-11T23:03:38.680Z,64.07
2022-08-11T23:06:25.282Z,38.53
2022-08-11T23:09:11.949Z,39.83
2022-08-11T23:12:07.808Z,43.75
2022-08-11T23:14:57.692Z,42.13
2022-08-11T23:17:44.048Z,38.60
2022-08-11T23:20:36.449Z,41.15
2022-08-11T23:23:28.125Z,41.60
2022-08-11T23:26:14.766Z,36.13
2022-08-11T23:29:05.012Z,37.63
2022-08-11T23:31:53.409Z,59.45
2022-08-11T23:35:03.711Z,41.33
2022-08-11T23:37:51.484Z,43.30
2022-08-11T23:40:37.505Z,36.60
2022-08-11T23:43:23.585Z,38.85
2022-08-11T23:46:10.587Z,42.25
2022-08-11T23:48:57.911Z,38.58
2022-08-11T23:51:45.732Z,41.88
2022-08-11T23:54:37.161Z,45.45
2022-08-11T23:57:23.844Z,49.08
